Point Harbor, North Carolina
Current Conditions -  °F | °C
As of 7:15 PM on Sunday 25 Jan 2015 (Local Time) from KFFA Reporting Station
Clear Clear  
Wind Chill: 39°   Ceiling: Unl
Heat Index: 42°   Visibility: 10mi
Dew Point: 33°   Wind: 5mph
Humidity: 69%   Direction: 150°SSE
Pressure: 29.9"   Gusts: NA
Location:  36.08°N, 75.79°W
Report Text: KFFA 260015Z AUTO 15004KT 10SM CLR 06/00 A2990 RMK AO2 T00560003
Loading
Personal Weather Stations






























Interactive Weather Map New forecast layout! Learn more

10-Day Weather Forecast

Advertisements
Track Severe Weather on mobile